sensor_id;sensor_type;location;lat;lon;timestamp;pressure;altitude;pressure_sealevel;temperature;humidity
43155;BME280;34212;51.018;13.586;2023-04-24T05:01:54;96636.34;;;13.81;71.70
43155;BME280;34212;51.018;13.586;2023-04-24T05:06:56;96636.25;;;13.88;71.39
43155;BME280;34212;51.018;13.586;2023-04-24T05:12:00;96634.06;;;13.96;71.49
43155;BME280;34212;51.018;13.586;2023-04-24T05:17:04;96634.41;;;14.00;71.04
43155;BME280;34212;51.018;13.586;2023-04-24T05:22:08;96632.69;;;14.05;70.79
43155;BME280;34212;51.018;13.586;2023-04-24T05:27:19;96640.84;;;14.10;70.80
43155;BME280;34212;51.018;13.586;2023-04-24T05:32:23;96641.31;;;14.19;70.33
43155;BME280;34212;51.018;13.586;2023-04-24T05:37:25;96643.22;;;14.30;70.15
43155;BME280;34212;51.018;13.586;2023-04-24T05:42:27;96653.94;;;14.42;70.42
43155;BME280;34212;51.018;13.586;2023-04-24T05:47:31;96658.38;;;14.48;70.09
43155;BME280;34212;51.018;13.586;2023-04-24T05:52:33;96657.00;;;14.58;70.34
43155;BME280;34212;51.018;13.586;2023-04-24T05:57:39;96658.06;;;14.57;69.88
43155;BME280;34212;51.018;13.586;2023-04-24T06:02:41;96661.81;;;14.55;69.49
43155;BME280;34212;51.018;13.586;2023-04-24T06:07:46;96661.00;;;14.55;69.76
43155;BME280;34212;51.018;13.586;2023-04-24T06:12:47;96658.06;;;14.57;69.09
43155;BME280;34212;51.018;13.586;2023-04-24T06:17:51;96665.06;;;14.58;68.54
43155;BME280;34212;51.018;13.586;2023-04-24T06:22:54;96659.00;;;14.62;68.50
43155;BME280;34212;51.018;13.586;2023-04-24T06:27:56;96662.84;;;14.66;68.39
43155;BME280;34212;51.018;13.586;2023-04-24T06:32:58;96664.13;;;14.75;67.98
43155;BME280;34212;51.018;13.586;2023-04-24T06:38:13;96664.25;;;14.92;68.08
43155;BME280;34212;51.018;13.586;2023-04-24T06:43:15;96663.84;;;15.12;68.38
43155;BME280;34212;51.018;13.586;2023-04-24T06:48:16;96659.28;;;15.24;67.55
43155;BME280;34212;51.018;13.586;2023-04-24T06:53:18;96658.56;;;15.29;67.71
43155;BME280;34212;51.018;13.586;2023-04-24T06:58:19;96662.31;;;15.28;67.58
43155;BME280;34212;51.018;13.586;2023-04-24T07:03:21;96662.06;;;15.30;67.79
43155;BME280;34212;51.018;13.586;2023-04-24T07:08:23;96671.28;;;15.34;67.79
43155;BME280;34212;51.018;13.586;2023-04-24T07:13:25;96686.94;;;15.37;67.66
43155;BME280;34212;51.018;13.586;2023-04-24T07:18:27;96683.97;;;15.50;68.02
43155;BME280;34212;51.018;13.586;2023-04-24T07:23:28;96690.72;;;15.64;67.61
43155;BME280;34212;51.018;13.586;2023-04-24T07:28:30;96703.41;;;15.81;67.22
43155;BME280;34212;51.018;13.586;2023-04-24T07:33:32;96696.28;;;16.03;66.92
43155;BME280;34212;51.018;13.586;2023-04-24T07:38:34;96695.16;;;16.16;66.05
43155;BME280;34212;51.018;13.586;2023-04-24T07:43:35;96696.50;;;16.30;66.00
43155;BME280;34212;51.018;13.586;2023-04-24T07:48:37;96702.84;;;16.41;65.86
43155;BME280;34212;51.018;13.586;2023-04-24T07:53:38;96706.88;;;16.55;65.34
43155;BME280;34212;51.018;13.586;2023-04-24T07:58:40;96706.97;;;16.60;64.41
43155;BME280;34212;51.018;13.586;2023-04-24T08:03:41;96697.81;;;16.61;64.21
43155;BME280;34212;51.018;13.586;2023-04-24T08:08:43;96687.69;;;16.69;63.99
43155;BME280;34212;51.018;13.586;2023-04-24T08:13:44;96705.50;;;16.87;64.06
43155;BME280;34212;51.018;13.586;2023-04-24T08:18:46;96707.91;;;17.05;63.30
43155;BME280;34212;51.018;13.586;2023-04-24T08:23:48;96713.94;;;17.12;63.38
43155;BME280;34212;51.018;13.586;2023-04-24T08:28:49;96709.94;;;17.15;62.39
43155;BME280;34212;51.018;13.586;2023-04-24T08:33:51;96722.13;;;17.00;62.30
43155;BME280;34212;51.018;13.586;2023-04-24T08:38:52;96719.84;;;16.92;62.00
43155;BME280;34212;51.018;13.586;2023-04-24T08:43:54;96717.06;;;16.87;61.91
43155;BME280;34212;51.018;13.586;2023-04-24T08:48:56;96721.34;;;16.83;61.38
43155;BME280;34212;51.018;13.586;2023-04-24T08:53:58;96714.78;;;16.79;60.96
43155;BME280;34212;51.018;13.586;2023-04-24T08:59:01;96718.56;;;16.78;60.84
43155;BME280;34212;51.018;13.586;2023-04-24T09:04:03;96721.25;;;16.78;60.86
43155;BME280;34212;51.018;13.586;2023-04-24T09:09:05;96729.47;;;16.88;60.28
43155;BME280;34212;51.018;13.586;2023-04-24T09:14:09;96720.97;;;16.96;59.51
43155;BME280;34212;51.018;13.586;2023-04-24T09:19:10;96728.72;;;17.09;59.49
43155;BME280;34212;51.018;13.586;2023-04-24T09:24:17;96731.06;;;17.23;59.55
43155;BME280;34212;51.018;13.586;2023-04-24T09:29:22;96733.31;;;17.31;59.04
43155;BME280;34212;51.018;13.586;2023-04-24T09:34:26;96727.13;;;17.30;59.33
43155;BME280;34212;51.018;13.586;2023-04-24T09:39:27;96735.97;;;17.26;58.92
43155;BME280;34212;51.018;13.586;2023-04-24T09:44:29;96721.56;;;17.37;59.17
43155;BME280;34212;51.018;13.586;2023-04-24T09:49:31;96724.94;;;17.49;58.83
43155;BME280;34212;51.018;13.586;2023-04-24T09:54:37;96720.13;;;17.51;58.17
43155;BME280;34212;51.018;13.586;2023-04-24T09:59:43;96717.56;;;17.62;57.33
43155;BME280;34212;51.018;13.586;2023-04-24T10:04:54;96706.59;;;17.90;57.32
43155;BME280;34212;51.018;13.586;2023-04-24T10:09:57;96716.72;;;18.05;57.42
43155;BME280;34212;51.018;13.586;2023-04-24T10:14:59;96717.03;;;18.09;57.54
43155;BME280;34212;51.018;13.586;2023-04-24T10:20:03;96707.47;;;18.23;57.42
43155;BME280;34212;51.018;13.586;2023-04-24T10:25:07;96711.13;;;18.39;56.90
43155;BME280;34212;51.018;13.586;2023-04-24T10:30:12;96702.75;;;18.40;56.25
43155;BME280;34212;51.018;13.586;2023-04-24T10:35:15;96705.56;;;18.51;56.35
43155;BME280;34212;51.018;13.586;2023-04-24T10:40:19;96701.38;;;18.70;56.79
43155;BME280;34212;51.018;13.586;2023-04-24T10:45:26;96716.63;;;18.81;56.48
43155;BME280;34212;51.018;13.586;2023-04-24T10:50:29;96713.50;;;18.67;56.79
43155;BME280;34212;51.018;13.586;2023-04-24T10:55:42;96710.25;;;18.33;55.43
43155;BME280;34212;51.018;13.586;2023-04-24T11:00:55;96716.34;;;17.96;56.22
43155;BME280;34212;51.018;13.586;2023-04-24T11:06:07;96720.66;;;17.75;56.22
43155;BME280;34212;51.018;13.586;2023-04-24T11:11:17;96722.75;;;17.68;56.56
43155;BME280;34212;51.018;13.586;2023-04-24T11:16:28;96722.56;;;17.75;56.18
43155;BME280;34212;51.018;13.586;2023-04-24T11:21:48;96720.28;;;18.11;56.17
43155;BME280;34212;51.018;13.586;2023-04-24T11:32:15;96708.44;;;18.44;54.71
43155;BME280;34212;51.018;13.586;2023-04-24T11:37:18;96710.63;;;18.47;53.95
43155;BME280;34212;51.018;13.586;2023-04-24T11:42:21;96716.38;;;18.56;54.57
43155;BME280;34212;51.018;13.586;2023-04-24T11:47:30;96723.22;;;18.63;53.60
43155;BME280;34212;51.018;13.586;2023-04-24T11:52:39;96724.41;;;18.45;52.43
43155;BME280;34212;51.018;13.586;2023-04-24T11:57:50;96727.22;;;18.02;53.97
43155;BME280;34212;51.018;13.586;2023-04-24T12:03:03;96734.34;;;17.69;52.25
43155;BME280;34212;51.018;13.586;2023-04-24T12:08:06;96730.72;;;17.36;52.40
43155;BME280;34212;51.018;13.586;2023-04-24T12:13:09;96737.91;;;17.30;52.16
43155;BME280;34212;51.018;13.586;2023-04-24T12:18:12;96729.53;;;17.49;51.50
43155;BME280;34212;51.018;13.586;2023-04-24T12:23:14;96734.53;;;17.79;51.13
43155;BME280;34212;51.018;13.586;2023-04-24T12:28:15;96740.03;;;17.89;50.15
43155;BME280;34212;51.018;13.586;2023-04-24T12:33:18;96740.38;;;17.76;50.50
43155;BME280;34212;51.018;13.586;2023-04-24T12:38:23;96747.53;;;17.87;50.15
43155;BME280;34212;51.018;13.586;2023-04-24T12:43:26;96740.31;;;17.93;49.46
43155;BME280;34212;51.018;13.586;2023-04-24T12:48:28;96740.13;;;17.99;49.76
43155;BME280;34212;51.018;13.586;2023-04-24T12:53:29;96746.78;;;18.14;49.70
43155;BME280;34212;51.018;13.586;2023-04-24T12:58:32;96738.09;;;18.12;50.73
43155;BME280;34212;51.018;13.586;2023-04-24T13:03:33;96732.88;;;18.27;48.96
43155;BME280;34212;51.018;13.586;2023-04-24T13:08:35;96733.44;;;18.93;46.03
43155;BME280;34212;51.018;13.586;2023-04-24T13:13:36;96723.06;;;20.53;42.66
43155;BME280;34212;51.018;13.586;2023-04-24T13:18:38;96733.25;;;22.24;40.29
43155;BME280;34212;51.018;13.586;2023-04-24T13:23:39;96736.44;;;22.36;38.69
43155;BME280;34212;51.018;13.586;2023-04-24T13:28:43;96734.25;;;22.38;37.61
43155;BME280;34212;51.018;13.586;2023-04-24T13:33:44;96741.19;;;23.23;36.70
43155;BME280;34212;51.018;13.586;2023-04-24T13:38:46;96745.03;;;22.53;38.06
43155;BME280;34212;51.018;13.586;2023-04-24T13:43:47;96750.16;;;21.05;38.79
43155;BME280;34212;51.018;13.586;2023-04-24T13:48:49;96734.91;;;20.27;40.17
43155;BME280;34212;51.018;13.586;2023-04-24T13:53:50;96732.13;;;20.01;40.39
43155;BME280;34212;51.018;13.586;2023-04-24T13:58:52;96724.72;;;19.66;40.86
43155;BME280;34212;51.018;13.586;2023-04-24T14:03:56;96735.03;;;19.27;41.98
43155;BME280;34212;51.018;13.586;2023-04-24T14:08:58;96729.28;;;19.18;41.93
43155;BME280;34212;51.018;13.586;2023-04-24T14:13:59;96718.00;;;18.84;42.36
43155;BME280;34212;51.018;13.586;2023-04-24T14:19:01;96730.53;;;18.68;42.54
43155;BME280;34212;51.018;13.586;2023-04-24T14:24:02;96711.28;;;18.59;42.66
43155;BME280;34212;51.018;13.586;2023-04-24T14:29:04;96718.56;;;18.59;42.83
43155;BME280;34212;51.018;13.586;2023-04-24T14:34:15;96717.31;;;18.39;42.18
43155;BME280;34212;51.018;13.586;2023-04-24T14:39:16;96720.59;;;18.41;41.91
43155;BME280;34212;51.018;13.586;2023-04-24T14:44:18;96724.97;;;18.48;41.95
43155;BME280;34212;51.018;13.586;2023-04-24T14:49:20;96712.41;;;19.38;41.92
43155;BME280;34212;51.018;13.586;2023-04-24T14:54:21;96729.22;;;20.23;41.31
43155;BME280;34212;51.018;13.586;2023-04-24T14:59:24;96717.09;;;20.77;39.18
43155;BME280;34212;51.018;13.586;2023-04-24T15:04:27;96725.44;;;21.42;37.14
43155;BME280;34212;51.018;13.586;2023-04-24T15:09:29;96723.97;;;21.75;35.78
43155;BME280;34212;51.018;13.586;2023-04-24T15:14:32;96755.84;;;20.98;36.61
43155;BME280;34212;51.018;13.586;2023-04-24T15:19:34;96735.91;;;19.95;37.31
43155;BME280;34212;51.018;13.586;2023-04-24T15:24:36;96755.53;;;19.65;38.28
43155;BME280;34212;51.018;13.586;2023-04-24T15:29:38;96745.50;;;19.18;38.93
43155;BME280;34212;51.018;13.586;2023-04-24T15:34:39;96743.75;;;18.97;40.32
43155;BME280;34212;51.018;13.586;2023-04-24T15:39:44;96752.25;;;18.78;40.70
43155;BME280;34212;51.018;13.586;2023-04-24T15:44:45;96761.63;;;18.43;41.19
43155;BME280;34212;51.018;13.586;2023-04-24T15:49:47;96754.63;;;17.93;41.49
43155;BME280;34212;51.018;13.586;2023-04-24T15:54:48;96760.69;;;17.62;42.32
43155;BME280;34212;51.018;13.586;2023-04-24T15:59:50;96776.19;;;17.71;42.72
43155;BME280;34212;51.018;13.586;2023-04-24T16:04:52;96760.66;;;17.78;42.58
43155;BME280;34212;51.018;13.586;2023-04-24T16:09:54;96773.56;;;17.76;43.05
43155;BME280;34212;51.018;13.586;2023-04-24T16:14:56;96780.63;;;17.61;43.19
43155;BME280;34212;51.018;13.586;2023-04-24T16:19:57;96776.31;;;17.21;43.26
43155;BME280;34212;51.018;13.586;2023-04-24T16:24:59;96786.50;;;16.85;43.98
43155;BME280;34212;51.018;13.586;2023-04-24T16:30:00;96800.41;;;16.48;44.06
43155;BME280;34212;51.018;13.586;2023-04-24T16:35:02;96802.78;;;16.04;44.33
43155;BME280;34212;51.018;13.586;2023-04-24T16:40:04;96802.41;;;15.72;44.88
43155;BME280;34212;51.018;13.586;2023-04-24T16:45:10;96811.06;;;15.62;45.55
43155;BME280;34212;51.018;13.586;2023-04-24T16:50:12;96814.56;;;15.51;45.81
43155;BME280;34212;51.018;13.586;2023-04-24T16:55:13;96822.53;;;15.34;46.48
43155;BME280;34212;51.018;13.586;2023-04-24T17:00:15;96824.16;;;15.23;46.62
43155;BME280;34212;51.018;13.586;2023-04-24T17:05:17;96822.75;;;15.21;46.78
43155;BME280;34212;51.018;13.586;2023-04-24T17:10:20;96827.66;;;15.24;47.47
43155;BME280;34212;51.018;13.586;2023-04-24T17:15:22;96817.16;;;15.22;47.70
43155;BME280;34212;51.018;13.586;2023-04-24T17:20:23;96844.34;;;15.02;47.66
43155;BME280;34212;51.018;13.586;2023-04-24T17:25:27;96842.06;;;14.76;48.49
43155;BME280;34212;51.018;13.586;2023-04-24T17:30:28;96850.69;;;14.48;48.83
43155;BME280;34212;51.018;13.586;2023-04-24T17:35:30;96869.69;;;14.16;49.79
43155;BME280;34212;51.018;13.586;2023-04-24T17:40:32;96875.22;;;14.03;50.29
43155;BME280;34212;51.018;13.586;2023-04-24T17:45:33;96885.66;;;13.93;50.96
43155;BME280;34212;51.018;13.586;2023-04-24T17:50:35;96889.06;;;13.81;51.26
43155;BME280;34212;51.018;13.586;2023-04-24T17:55:40;96889.22;;;13.68;51.50
43155;BME280;34212;51.018;13.586;2023-04-24T18:00:43;96892.16;;;13.60;51.17
43155;BME280;34212;51.018;13.586;2023-04-24T18:05:45;96903.81;;;13.47;51.82
43155;BME280;34212;51.018;13.586;2023-04-24T18:10:46;96921.09;;;13.26;51.81
43155;BME280;34212;51.018;13.586;2023-04-24T18:15:48;96922.28;;;12.99;52.29
43155;BME280;34212;51.018;13.586;2023-04-24T18:20:49;96936.00;;;12.77;52.30
43155;BME280;34212;51.018;13.586;2023-04-24T18:25:51;96941.91;;;12.54;52.80
43155;BME280;34212;51.018;13.586;2023-04-24T18:30:53;96947.75;;;12.38;53.30
43155;BME280;34212;51.018;13.586;2023-04-24T18:35:54;96943.66;;;12.29;53.56
43155;BME280;34212;51.018;13.586;2023-04-24T18:40:56;96963.63;;;12.26;53.91
43155;BME280;34212;51.018;13.586;2023-04-24T18:45:57;96972.88;;;12.23;53.93
43155;BME280;34212;51.018;13.586;2023-04-24T18:50:59;96967.94;;;12.20;53.51
43155;BME280;34212;51.018;13.586;2023-04-24T18:56:00;96986.47;;;12.22;53.19
43155;BME280;34212;51.018;13.586;2023-04-24T19:01:02;96982.97;;;12.21;52.93
43155;BME280;34212;51.018;13.586;2023-04-24T19:06:06;96992.66;;;12.16;53.13
43155;BME280;34212;51.018;13.586;2023-04-24T19:11:08;97004.78;;;12.12;53.28
43155;BME280;34212;51.018;13.586;2023-04-24T19:16:09;97010.97;;;12.06;53.73
43155;BME280;34212;51.018;13.586;2023-04-24T19:21:11;97008.72;;;12.02;54.13
43155;BME280;34212;51.018;13.586;2023-04-24T19:26:13;97016.53;;;11.91;54.52
43155;BME280;34212;51.018;13.586;2023-04-24T19:31:14;97013.44;;;11.74;54.63
43155;BME280;34212;51.018;13.586;2023-04-24T19:36:16;97018.16;;;11.59;55.28
43155;BME280;34212;51.018;13.586;2023-04-24T19:41:21;97024.72;;;11.49;55.47
43155;BME280;34212;51.018;13.586;2023-04-24T19:46:22;97016.53;;;11.51;55.66
43155;BME280;34212;51.018;13.586;2023-04-24T19:51:24;97016.53;;;11.57;55.80
43155;BME280;34212;51.018;13.586;2023-04-24T19:56:26;97009.53;;;11.56;56.15
43155;BME280;34212;51.018;13.586;2023-04-24T20:01:28;97011.81;;;11.53;56.73
43155;BME280;34212;51.018;13.586;2023-04-24T20:06:29;97015.06;;;11.55;56.56
43155;BME280;34212;51.018;13.586;2023-04-24T20:11:32;97012.22;;;11.56;57.10
43155;BME280;34212;51.018;13.586;2023-04-24T20:16:34;97028.03;;;11.58;57.49
43155;BME280;34212;51.018;13.586;2023-04-24T20:21:35;97027.59;;;11.54;57.67
43155;BME280;34212;51.018;13.586;2023-04-24T20:26:37;97031.50;;;11.45;57.62
43155;BME280;34212;51.018;13.586;2023-04-24T20:31:39;97029.66;;;11.32;57.95
43155;BME280;34212;51.018;13.586;2023-04-24T20:36:41;97022.22;;;11.21;57.60
43155;BME280;34212;51.018;13.586;2023-04-24T20:41:49;97025.09;;;11.13;57.35
43155;BME280;34212;51.018;13.586;2023-04-24T20:46:51;97028.75;;;11.05;56.93
43155;BME280;34212;51.018;13.586;2023-04-24T20:51:53;97032.03;;;10.94;57.02
43155;BME280;34212;51.018;13.586;2023-04-24T20:56:54;97029.94;;;10.83;57.24
43155;BME280;34212;51.018;13.586;2023-04-24T21:01:57;97027.47;;;10.75;57.86
43155;BME280;34212;51.018;13.586;2023-04-24T21:06:59;97028.25;;;10.69;57.64
43155;BME280;34212;51.018;13.586;2023-04-24T21:12:00;97028.25;;;10.69;57.78
43155;BME280;34212;51.018;13.586;2023-04-24T21:17:03;97040.41;;;10.78;57.96
43155;BME280;34212;51.018;13.586;2023-04-24T21:22:04;97029.53;;;10.86;57.91
43155;BME280;34212;51.018;13.586;2023-04-24T21:27:06;97023.00;;;10.89;58.30
43155;BME280;34212;51.018;13.586;2023-04-24T21:32:09;97043.06;;;10.78;58.25
43155;BME280;34212;51.018;13.586;2023-04-24T21:37:11;97034.41;;;10.69;58.95
43155;BME280;34212;51.018;13.586;2023-04-24T21:42:13;97026.41;;;10.69;59.12
43155;BME280;34212;51.018;13.586;2023-04-24T21:47:15;97019.28;;;10.83;59.21
43155;BME280;34212;51.018;13.586;2023-04-24T21:52:16;97014.59;;;10.98;59.04
43155;BME280;34212;51.018;13.586;2023-04-24T21:57:18;97015.66;;;11.10;59.19
